Terminal Aerodrome Forecast
Issued by NWS Cleveland, OH

Home | Current Version | Previous Version | Graphics & Text | Print | Product List | Glossary On
Versions: 1 2 3 4 5 6 7 8 9 10 11 12 13 14 15 16
000
FTUS41 KCLE 221726
TAFMFD
TAF
KMFD 221726Z 2218/2318 22012KT P6SM SCT040 BKN150
     FM230500 19012KT P6SM -SHRA SCT025 OVC035
     FM230600 19012KT P6SM -SHRA SCT015 OVC025
     FM231000 21012KT 6SM -SHRA VCTS SCT010CB OVC020
     FM231300 22013KT 5SM -SHRA VCTS SCT007CB OVC015=

USA.gov is the U.S. government's official web portal to all federal, state and local government web resources and services.